Time;durP1;ratioP1;P1;durP2;ratioP2;P2;SDS_P1;SDS_P2;PMS_P1;PMS_P2;Temp;Humidity;BMP_temperature;BMP_pressure;BME280_temperature;BME280_humidity;BME280_pressure;Samples;Min_cycle;Max_cycle;Signal;HPM_P1;HPM_P2
2021/01/29 00:00:31;;;;;;;;;16.25;15.00;;;;;21.38;56.73;99540.59;4937578;29;10284;-69
2021/01/29 00:03:03;;;;;;;;;8.50;7.50;;;;;21.36;55.44;99548.97;4936835;29;10400;-69
2021/01/29 00:05:37;;;;;;;;;19.25;16.00;;;;;21.36;57.06;99548.19;4936804;29;11223;-69
2021/01/29 00:08:06;;;;;;;;;20.25;18.75;;;;;21.33;56.72;99548.81;4936623;29;10488;-69
2021/01/29 00:10:35;;;;;;;;;18.50;18.25;;;;;21.34;56.18;99556.56;4936690;29;10495;-69
2021/01/29 00:13:05;;;;;;;;;22.25;18.75;;;;;21.36;57.11;99564.28;4936658;29;10464;-68
2021/01/29 00:15:34;;;;;;;;;23.50;18.25;;;;;21.36;56.60;99561.59;4936567;29;10265;-69
2021/01/29 00:18:03;;;;;;;;;23.00;22.25;;;;;21.36;57.67;99573.13;4936608;29;10583;-69
2021/01/29 00:20:32;;;;;;;;;23.50;21.00;;;;;21.37;56.75;99571.22;4936472;29;10544;-70
2021/01/29 00:23:01;;;;;;;;;22.25;19.25;;;;;21.35;57.43;99579.59;4936531;29;10312;-68
2021/01/29 00:25:39;;;;;;;;;23.25;20.00;;;;;21.38;56.62;99587.03;4936147;29;10506;-69
2021/01/29 00:28:08;;;;;;;;;8.25;6.00;;;;;21.38;55.50;99591.59;4936081;29;10671;-70
2021/01/29 00:30:37;;;;;;;;;19.50;17.00;;;;;21.38;56.32;99592.38;4936486;29;10465;-71
2021/01/29 00:33:09;;;;;;;;;24.75;20.25;;;;;21.35;55.09;99587.66;4936165;29;10582;-70
2021/01/29 00:35:37;;;;;;;;;23.75;19.75;;;;;21.39;56.79;99595.84;4919235;29;10566;-69
2021/01/29 00:38:07;;;;;;;;;24.00;18.75;;;;;21.41;54.31;99597.13;4935608;29;10659;-69
2021/01/29 00:40:36;;;;;;;;;22.75;18.75;;;;;21.39;54.30;99598.53;4935618;29;10658;-70
2021/01/29 00:43:08;;;;;;;;;33.00;25.00;;;;;21.39;55.67;99604.69;4935815;29;10763;-72
2021/01/29 00:45:39;;;;;;;;;28.00;23.75;;;;;21.34;54.50;99607.53;4919167;29;10960;-72
2021/01/29 00:48:08;;;;;;;;;30.50;27.00;;;;;21.40;55.43;99611.66;4935521;29;10673;-72
2021/01/29 00:50:37;;;;;;;;;18.00;17.00;;;;;21.40;55.83;99621.59;4935173;29;11598;-72
2021/01/29 00:53:07;;;;;;;;;31.50;23.75;;;;;21.43;53.92;99618.28;4935378;29;10749;-73
2021/01/29 00:55:35;;;;;;;;;28.75;24.00;;;;;21.43;57.23;99621.75;4935432;29;10750;-71
2021/01/29 00:58:04;;;;;;;;;27.00;27.00;;;;;21.47;53.53;99624.59;4935421;29;10651;-71
2021/01/29 01:00:32;;;;;;;;;22.50;21.50;;;;;21.45;55.65;99624.91;4934026;29;10977;-69
2021/01/29 01:03:00;;;;;;;;;30.75;27.25;;;;;21.48;54.00;99629.63;4924078;29;10822;-73
2021/01/29 01:05:31;;;;;;;;;7.50;6.50;;;;;21.54;56.44;99638.31;4924168;29;10827;-72
2021/01/29 01:07:59;;;;;;;;;25.50;23.25;;;;;21.61;55.08;99644.00;4927642;29;11328;-72
2021/01/29 01:10:27;;;;;;;;;26.50;21.75;;;;;21.69;54.36;99650.47;4932114;29;10887;-71
2021/01/29 01:12:56;;;;;;;;;25.50;25.50;;;;;21.70;55.66;99642.09;4931064;29;10842;-74
2021/01/29 01:15:26;;;;;;;;;21.00;19.75;;;;;21.85;54.07;99648.88;4934759;29;10838;-75
2021/01/29 01:17:59;;;;;;;;;24.50;21.50;;;;;21.97;54.53;99651.69;4934540;29;10684;-74
2021/01/29 01:20:30;;;;;;;;;27.50;23.00;;;;;21.99;53.24;99646.78;4934830;29;10746;-76
2021/01/29 01:22:59;;;;;;;;;19.50;18.25;;;;;22.14;53.20;99657.00;4934849;29;10788;-80
2021/01/29 01:25:27;;;;;;;;;19.00;18.00;;;;;22.22;53.20;99662.69;4934678;29;10718;-74
2021/01/29 01:27:58;;;;;;;;;16.25;14.00;;;;;22.32;52.99;99665.03;4935452;29;10541;-76
2021/01/29 01:30:38;;;;;;;;;19.50;17.25;;;;;22.34;53.38;99663.59;4935425;29;10572;-77
2021/01/29 01:33:08;;;;;;;;;22.50;17.50;;;;;22.46;52.78;99676.34;4934241;29;10589;-78
2021/01/29 01:35:36;;;;;;;;;22.50;17.75;;;;;22.50;52.34;99669.22;4934822;29;10418;-81
2021/01/29 01:38:06;;;;;;;;;20.50;16.50;;;;;22.50;52.93;99676.50;4935020;29;10574;-75
2021/01/29 01:40:38;;;;;;;;;21.25;19.50;;;;;22.62;51.85;99677.41;4932298;29;10390;-76
2021/01/29 01:43:06;;;;;;;;;21.75;17.00;;;;;22.67;51.89;99679.91;4897599;29;10506;-74
2021/01/29 01:46:03;;;;;;;;;19.75;18.00;;;;;22.64;51.62;99672.47;4914388;29;10396;-75
2021/01/29 01:49:03;;;;;;;;;15.75;14.00;;;;;22.75;51.70;99684.44;4899086;29;10601;-79
2021/01/29 01:51:53;;;;;;;;;10.50;9.25;;;;;22.82;51.70;99692.03;4914105;29;10246;-75
2021/01/29 01:54:34;;;;;;;;;14.25;12.75;;;;;22.91;51.18;99695.47;4916661;29;10141;-72
2021/01/29 01:57:04;;;;;;;;;17.50;15.50;;;;;22.97;51.13;99683.41;4914877;29;10429;-69
2021/01/29 01:59:39;;;;;;;;;19.00;15.75;;;;;22.93;50.97;99681.69;4914136;29;10538;-70
2021/01/29 02:02:10;;;;;;;;;15.25;12.00;;;;;22.97;50.86;99693.38;4897246;29;10533;-73
2021/01/29 02:04:44;;;;;;;;;16.25;11.25;;;;;23.01;50.82;99689.72;4912571;29;10172;-73
2021/01/29 02:07:30;;;;;;;;;18.75;16.00;;;;;23.03;50.73;99692.09;4923362;29;10253;-73
2021/01/29 02:10:03;;;;;;;;;13.75;13.75;;;;;23.00;50.74;99692.72;4909782;29;10093;-71
2021/01/29 02:12:31;;;;;;;;;16.50;15.00;;;;;22.99;50.67;99691.16;4914025;29;9995;-72
2021/01/29 02:14:59;;;;;;;;;17.25;12.25;;;;;23.03;50.67;99686.69;4914485;29;10116;-71
2021/01/29 02:18:07;;;;;;;;;15.25;13.50;;;;;23.06;50.83;99694.13;4915143;29;10160;-71
2021/01/29 02:21:07;;;;;;;;;15.25;14.50;;;;;23.13;50.67;99689.00;4915300;29;10199;-72
2021/01/29 02:24:05;;;;;;;;;15.25;11.00;;;;;23.23;50.58;99696.72;4914830;29;10192;-69
2021/01/29 02:27:12;;;;;;;;;15.75;14.25;;;;;23.30;50.24;99694.28;4913363;29;10165;-69
2021/01/29 02:30:12;;;;;;;;;13.50;12.25;;;;;23.37;50.37;99699.94;4914894;29;10172;-71
2021/01/29 02:33:20;;;;;;;;;15.75;13.00;;;;;23.43;50.16;99687.81;4915094;29;10013;-71
2021/01/29 02:36:20;;;;;;;;;14.50;11.25;;;;;23.49;50.10;99687.63;4913448;29;10330;-72
2021/01/29 02:39:19;;;;;;;;;16.25;14.00;;;;;23.50;49.99;99698.06;4901586;29;9977;-71
2021/01/29 02:42:27;;;;;;;;;19.25;13.75;;;;;23.51;49.97;99696.16;4914076;29;9843;-73
2021/01/29 02:45:27;;;;;;;;;17.75;15.00;;;;;23.54;49.95;99693.63;4914056;29;9867;-71
2021/01/29 02:48:20;;;;;;;;;18.50;17.50;;;;;23.59;49.78;99692.63;4917134;29;10197;-71
2021/01/29 02:51:15;;;;;;;;;12.75;12.00;;;;;23.64;49.95;99695.13;4907229;29;9979;-70
2021/01/29 02:54:07;;;;;;;;;12.00;12.00;;;;;23.69;49.84;99695.72;4924036;29;9926;-70
2021/01/29 02:56:50;;;;;;;;;17.50;16.00;;;;;23.73;49.82;99701.22;4918645;29;10031;-69
2021/01/29 02:59:41;;;;;;;;;14.00;11.00;;;;;23.75;49.59;99701.69;4934080;29;9900;-70
2021/01/29 03:02:27;;;;;;;;;12.50;12.50;;;;;23.75;49.52;99693.59;4933898;29;10005;-69
2021/01/29 03:05:09;;;;;;;;;15.75;11.75;;;;;23.74;48.57;99694.72;4922408;29;9778;-70
2021/01/29 03:07:52;;;;;;;;;12.00;10.50;;;;;23.74;49.61;99681.25;4919885;29;9832;-71
2021/01/29 03:10:51;;;;;;;;;15.00;13.50;;;;;23.84;49.24;99680.84;4922782;29;9749;-71
2021/01/29 03:13:39;;;;;;;;;17.50;16.25;;;;;23.89;48.95;99682.53;4926872;29;9723;-72
2021/01/29 03:16:37;;;;;;;;;19.00;16.25;;;;;23.93;48.70;99680.75;4921935;29;9774;-72
2021/01/29 03:19:38;;;;;;;;;21.50;18.25;;;;;23.86;48.95;99658.97;4924632;29;9942;-74
2021/01/29 03:22:13;;;;;;;;;16.00;14.00;;;;;23.98;48.57;99667.88;4926754;29;9840;-71
2021/01/29 03:24:47;;;;;;;;;21.50;20.00;;;;;24.04;48.93;99671.13;4919428;29;9714;-70
2021/01/29 03:27:22;;;;;;;;;16.50;13.00;;;;;24.04;48.72;99668.44;4926289;29;10009;-72
2021/01/29 03:30:12;;;;;;;;;21.00;17.00;;;;;24.15;48.76;99666.09;4927304;29;9814;-71
2021/01/29 03:32:42;;;;;;;;;15.75;14.75;;;;;24.16;48.79;99656.91;4932811;29;9943;-72
2021/01/29 03:35:37;;;;;;;;;18.75;17.00;;;;;24.22;48.35;99655.56;4924017;29;9762;-73
2021/01/29 03:38:44;;;;;;;;;20.25;17.00;;;;;24.29;48.56;99662.00;4924941;29;10063;-73
2021/01/29 03:41:29;;;;;;;;;16.25;13.00;;;;;24.33;47.60;99654.03;4919531;29;9926;-71
2021/01/29 03:44:27;;;;;;;;;7.50;6.00;;;;;24.34;48.39;99644.81;4918019;29;9978;-73
2021/01/29 03:47:08;;;;;;;;;16.00;13.75;;;;;24.39;48.34;99639.19;4917928;29;9899;-70
2021/01/29 03:50:02;;;;;;;;;16.00;11.50;;;;;24.43;48.33;99645.50;4925161;29;9915;-71
2021/01/29 03:52:48;;;;;;;;;19.25;15.75;;;;;24.44;48.13;99638.19;4926538;29;9917;-71
2021/01/29 03:55:40;;;;;;;;;18.00;17.75;;;;;24.45;48.13;99642.47;4933640;29;9886;-72
2021/01/29 03:58:37;;;;;;;;;16.50;15.00;;;;;24.42;47.62;99635.03;4934765;29;9583;-73
2021/01/29 04:01:44;;;;;;;;;15.25;15.25;;;;;24.52;47.96;99629.19;4917724;29;9761;-73
2021/01/29 04:04:52;;;;;;;;;21.25;17.00;;;;;24.60;48.06;99639.88;4934727;29;9716;-72
2021/01/29 04:07:48;;;;;;;;;21.25;13.50;;;;;24.66;47.61;99630.44;4935172;29;9933;-72
2021/01/29 04:10:29;;;;;;;;;20.50;17.00;;;;;24.64;47.20;99624.59;4935490;29;9808;-71
2021/01/29 04:13:18;;;;;;;;;17.50;15.00;;;;;24.73;46.84;99625.22;4935725;29;9795;-72
2021/01/29 04:15:51;;;;;;;;;17.75;14.75;;;;;24.78;47.09;99618.81;4935431;29;9779;-70
2021/01/29 04:18:27;;;;;;;;;14.00;14.00;;;;;24.83;47.69;99610.50;4935628;29;9583;-71
2021/01/29 04:21:34;;;;;;;;;12.33;11.33;;;;;24.91;46.09;99611.47;4935557;29;9577;-72
2021/01/29 04:24:17;;;;;;;;;14.25;13.00;;;;;24.95;46.48;99607.75;4934519;29;9509;-70
2021/01/29 04:27:09;;;;;;;;;7.33;7.00;;;;;24.96;47.20;99597.75;4930973;29;9504;-71
2021/01/29 04:29:48;;;;;;;;;11.50;7.75;;;;;25.06;47.24;99586.50;4929627;29;9426;-73
2021/01/29 04:32:22;;;;;;;;;7.00;5.67;;;;;25.12;46.87;99593.25;4930242;29;9494;-72
2021/01/29 04:34:55;;;;;;;;;13.67;12.00;;;;;25.13;46.57;99589.41;4930215;29;9431;-73
2021/01/29 04:37:30;;;;;;;;;14.67;11.00;;;;;25.15;45.67;99584.44;4933574;29;9452;-72
2021/01/29 04:40:07;;;;;;;;;14.33;12.33;;;;;25.19;45.84;99563.75;4931204;29;9441;-72
2021/01/29 04:43:08;;;;;;;;;12.67;12.00;;;;;25.26;45.10;99563.16;4930291;29;9320;-72
2021/01/29 04:46:02;;;;;;;;;12.33;11.00;;;;;25.34;46.96;99554.91;4921078;29;9411;-71
2021/01/29 04:49:05;;;;;;;;;12.67;10.00;;;;;25.42;46.72;99547.00;4924702;29;9243;-69
2021/01/29 04:52:05;;;;;;;;;10.00;10.00;;;;;25.44;46.40;99544.72;4925709;29;9198;-68
2021/01/29 04:54:52;;;;;;;;;12.67;10.33;;;;;25.41;46.42;99543.50;4926170;29;9429;-70
2021/01/29 04:57:44;;;;;;;;;9.67;1.00;;;;;25.43;46.39;99535.06;4910026;29;9257;-68
2021/01/29 05:00:52;;;;;;;;;11.67;6.67;;;;;25.43;46.12;99535.84;4930004;29;9351;-68
2021/01/29 05:04:00;;;;;;;;;12.00;10.33;;;;;25.45;46.07;99530.09;4932149;29;9414;-70
2021/01/29 05:06:52;;;;;;;;;11.67;7.67;;;;;25.50;44.44;99513.63;4932938;29;9281;-70
2021/01/29 05:09:52;;;;;;;;;12.67;11.00;;;;;25.57;45.61;99503.00;4928797;29;9349;-69
2021/01/29 05:12:54;;;;;;;;;9.33;9.33;;;;;25.64;45.99;99503.19;4927190;29;9277;-70
2021/01/29 05:15:36;;;;;;;;;9.33;9.33;;;;;25.68;45.20;99490.56;4931284;29;9021;-70
2021/01/29 05:18:33;;;;;;;;;3.67;3.00;;;;;25.74;44.83;99483.78;4932407;29;9115;-70
2021/01/29 05:21:39;;;;;;;;;16.33;10.00;;;;;25.79;45.22;99482.72;4931234;29;9101;-70
2021/01/29 05:24:40;;;;;;;;;11.00;7.00;;;;;25.82;45.38;99472.00;4933372;29;9112;-70
2021/01/29 05:27:47;;;;;;;;;16.00;10.67;;;;;25.86;44.80;99475.56;4933078;29;9723;-70
2021/01/29 05:30:48;;;;;;;;;16.00;10.00;;;;;25.93;45.15;99470.34;4932528;29;9048;-70
2021/01/29 05:33:44;;;;;;;;;14.67;12.67;;;;;25.99;42.42;99460.81;4933404;29;9110;-70
2021/01/29 05:36:29;;;;;;;;;12.67;12.67;;;;;26.07;44.81;99458.25;4931565;29;9182;-70
2021/01/29 05:39:29;;;;;;;;;10.33;9.67;;;;;26.13;45.02;99443.31;4932573;29;9207;-70
2021/01/29 05:42:22;;;;;;;;;11.67;11.33;;;;;26.12;44.49;99425.53;4925444;29;9062;-70
2021/01/29 05:45:10;;;;;;;;;11.33;11.33;;;;;26.18;43.88;99427.59;4917449;29;9042;-70
2021/01/29 05:48:10;;;;;;;;;12.67;10.67;;;;;26.23;43.64;99427.31;4934477;29;9212;-71
2021/01/29 05:51:11;;;;;;;;;9.67;9.67;;;;;26.26;44.72;99412.31;4934595;29;9038;-71
2021/01/29 05:54:10;;;;;;;;;8.00;8.00;;;;;26.34;44.46;99405.94;4931309;29;9029;-71
2021/01/29 05:57:03;;;;;;;;;15.67;12.00;;;;;26.36;44.65;99406.38;4927215;29;8967;-71
2021/01/29 05:59:54;;;;;;;;;17.00;10.00;;;;;26.34;43.01;99400.53;4931262;29;9218;-71
2021/01/29 06:03:02;;;;;;;;;11.00;11.00;;;;;26.37;44.17;99390.91;4914623;29;8970;-73
2021/01/29 06:06:08;;;;;;;;;12.25;10.75;;;;;26.33;44.18;99372.69;4929696;29;9037;-73
2021/01/29 06:09:11;;;;;;;;;11.33;9.33;;;;;26.41;43.87;99370.13;4932695;29;8876;-73
2021/01/29 06:12:07;;;;;;;;;9.67;9.67;;;;;26.44;43.70;99367.50;4932596;29;8984;-74
2021/01/29 06:14:59;;;;;;;;;14.33;9.67;;;;;26.47;43.52;99369.50;4931111;29;9068;-70
2021/01/29 06:17:52;;;;;;;;;17.67;12.00;;;;;26.52;43.44;99358.38;4932661;29;8960;-70
2021/01/29 06:20:52;;;;;;;;;17.00;11.33;;;;;26.51;43.52;99340.59;4932901;29;9050;-72
2021/01/29 06:23:52;;;;;;;;;12.50;11.75;;;;;26.59;43.13;99331.47;4932457;29;9043;-73
2021/01/29 06:26:49;;;;;;;;;11.00;9.00;;;;;26.65;43.42;99327.31;4932983;29;8871;-73
2021/01/29 06:29:41;;;;;;;;;9.67;9.67;;;;;26.71;42.92;99322.38;4931590;29;8958;-70
2021/01/29 06:32:48;;;;;;;;;14.50;12.00;;;;;26.71;41.96;99313.50;4930741;29;9036;-71
2021/01/29 06:35:41;;;;;;;;;18.00;12.00;;;;;26.80;42.93;99300.50;4931642;29;9624;-70
2021/01/29 06:38:33;;;;;;;;;13.75;11.00;;;;;26.87;41.21;99300.63;4929165;29;9022;-71
2021/01/29 06:41:26;;;;;;;;;14.00;11.50;;;;;26.98;42.66;99298.91;4927145;29;8860;-72
2021/01/29 06:44:34;;;;;;;;;10.00;9.75;;;;;27.10;41.61;99284.38;4928444;29;8922;-71
2021/01/29 06:47:34;;;;;;;;;13.50;9.75;;;;;27.20;42.03;99276.44;4926757;29;8852;-71
2021/01/29 06:50:23;;;;;;;;;15.75;14.25;;;;;27.29;42.47;99276.94;4931744;29;8863;-71
2021/01/29 06:53:23;;;;;;;;;11.75;11.75;;;;;27.33;41.98;99268.06;4932456;29;8863;-71
2021/01/29 06:56:23;;;;;;;;;10.50;9.50;;;;;27.39;42.08;99256.53;4932279;29;8875;-70
2021/01/29 06:59:31;;;;;;;;;10.75;8.00;;;;;27.47;42.24;99254.72;4932351;29;8927;-71
2021/01/29 07:02:30;;;;;;;;;11.75;11.75;;;;;27.50;40.86;99248.56;4930256;29;8847;-70
2021/01/29 07:05:30;;;;;;;;;10.50;10.50;;;;;27.57;42.05;99245.94;4931392;29;8852;-70
2021/01/29 07:08:23;;;;;;;;;9.75;9.00;;;;;27.59;40.81;99241.75;4931529;29;8852;-71
2021/01/29 07:11:16;;;;;;;;;10.00;10.00;;;;;27.63;41.31;99241.78;4930346;29;8868;-70
2021/01/29 07:14:16;;;;;;;;;12.50;9.75;;;;;27.68;41.53;99232.56;4933873;29;8836;-70
2021/01/29 07:17:24;;;;;;;;;11.50;11.50;;;;;27.58;41.54;99218.47;4934834;29;8844;-70
2021/01/29 07:20:24;;;;;;;;;11.00;10.25;;;;;27.70;40.97;99225.63;4935117;29;8860;-70
2021/01/29 07:23:24;;;;;;;;;10.75;10.00;;;;;27.76;41.54;99216.00;4925445;29;8907;-70
2021/01/29 07:26:17;;;;;;;;;8.50;6.75;;;;;27.80;39.61;99211.41;4913848;29;8925;-70
2021/01/29 07:29:13;;;;;;;;;10.75;9.50;;;;;27.85;39.48;99204.88;4928241;29;8958;-69
2021/01/29 07:32:04;;;;;;;;;11.75;10.50;;;;;27.96;40.85;99202.28;4932125;29;8980;-70
2021/01/29 07:34:50;;;;;;;;;14.75;10.25;;;;;28.05;41.31;99194.63;4925865;29;8874;-70
2021/01/29 07:37:57;;;;;;;;;15.00;11.50;;;;;28.04;40.78;99184.94;4911979;29;8850;-70
2021/01/29 07:40:50;;;;;;;;;11.00;11.00;;;;;28.02;40.93;99182.59;4935300;29;8911;-71
2021/01/29 07:43:50;;;;;;;;;13.25;10.25;;;;;28.02;38.84;99176.41;4918499;29;8858;-71
2021/01/29 07:46:43;;;;;;;;;11.00;11.00;;;;;28.08;40.97;99175.69;4935227;29;8931;-71
2021/01/29 07:49:31;;;;;;;;;14.50;13.00;;;;;28.07;40.94;99155.16;4933474;29;8840;-71
2021/01/29 07:52:24;;;;;;;;;11.75;9.25;;;;;28.14;40.54;99165.28;4934647;29;8890;-71
2021/01/29 07:55:09;;;;;;;;;12.50;12.25;;;;;28.13;40.44;99156.38;4934728;29;8872;-71
2021/01/29 07:58:01;;;;;;;;;10.00;9.00;;;;;28.09;39.63;99149.34;4934637;29;8844;-70
2021/01/29 08:01:08;;;;;;;;;13.00;9.25;;;;;28.20;40.54;99155.66;4919363;29;8859;-70
2021/01/29 08:04:06;;;;;;;;;12.25;10.75;;;;;28.24;40.02;99156.50;4933381;29;8858;-68
2021/01/29 08:07:03;;;;;;;;;18.00;16.00;;;;;28.24;40.40;99153.78;4930306;29;8916;-69
2021/01/29 08:09:52;;;;;;;;;18.75;16.00;;;;;28.22;40.15;99147.94;4933161;29;8916;-69
2021/01/29 08:12:22;;;;;;;;;14.50;11.50;;;;;28.30;40.27;99148.78;4931346;29;8867;-69
2021/01/29 08:15:15;;;;;;;;;9.50;7.75;;;;;28.35;40.36;99148.44;4933099;29;8886;-69
2021/01/29 08:18:06;;;;;;;;;10.75;10.25;;;;;28.39;40.22;99144.59;4931751;29;8872;-69
2021/01/29 08:20:53;;;;;;;;;12.25;8.75;;;;;28.41;40.47;99145.00;4932818;29;8879;-68
2021/01/29 08:23:59;;;;;;;;;9.25;9.25;;;;;28.36;40.10;99129.06;4932874;29;8879;-72
2021/01/29 08:26:59;;;;;;;;;6.25;2.50;;;;;28.35;39.69;99130.22;4915292;29;8896;-71
2021/01/29 08:29:59;;;;;;;;;11.25;9.50;;;;;28.35;39.93;99129.44;4931213;29;8891;-70
2021/01/29 08:32:50;;;;;;;;;8.00;8.00;;;;;28.40;39.97;99131.81;4916056;29;9379;-70
2021/01/29 08:35:51;;;;;;;;;10.50;10.50;;;;;28.39;40.44;99124.84;4923486;29;8866;-70
2021/01/29 08:38:58;;;;;;;;;11.25;9.00;;;;;28.37;40.26;99119.78;4927113;29;9699;-70
2021/01/29 08:41:53;;;;;;;;;15.25;12.25;;;;;28.33;39.78;99113.53;4928165;29;8852;-71
2021/01/29 08:44:46;;;;;;;;;9.50;9.50;;;;;28.36;39.73;99115.50;4913877;29;8942;-72
2021/01/29 08:47:42;;;;;;;;;9.00;9.00;;;;;28.40;39.60;99113.59;4929381;29;8872;-70
2021/01/29 08:50:35;;;;;;;;;9.00;9.00;;;;;28.41;39.54;99104.31;4930331;29;8911;-71
2021/01/29 08:53:35;;;;;;;;;11.00;11.00;;;;;28.36;40.25;99093.81;4930360;29;8969;-72
2021/01/29 08:56:33;;;;;;;;;11.25;8.75;;;;;28.42;40.06;99095.00;4930173;29;8930;-71
2021/01/29 08:59:09;;;;;;;;;10.50;9.50;;;;;28.43;39.56;99098.50;4932285;29;8852;-71
2021/01/29 09:02:09;;;;;;;;;17.00;13.50;;;;;28.42;39.39;99100.44;4932814;29;8954;-72
2021/01/29 09:04:56;;;;;;;;;12.75;11.25;;;;;28.41;38.76;99098.88;4930660;29;8860;-72
2021/01/29 09:07:29;;;;;;;;;12.25;11.50;;;;;28.40;39.50;99099.25;4932456;29;8974;-72
2021/01/29 09:10:31;;;;;;;;;12.00;10.25;;;;;28.40;38.87;99094.59;4928518;29;8860;-72
2021/01/29 09:13:06;;;;;;;;;10.75;10.00;;;;;28.45;39.95;99096.97;4929658;29;8880;-72
2021/01/29 09:16:08;;;;;;;;;9.50;9.00;;;;;28.43;39.56;99098.50;4930980;29;8935;-70
2021/01/29 09:19:14;;;;;;;;;8.75;8.75;;;;;28.40;40.15;99091.91;4929620;29;8902;-71
2021/01/29 09:22:21;;;;;;;;;16.00;9.25;;;;;28.37;38.79;99092.66;4929379;29;8891;-72
2021/01/29 09:25:17;;;;;;;;;13.25;12.00;;;;;28.35;39.74;99092.25;4929523;29;8880;-71
2021/01/29 09:28:17;;;;;;;;;11.00;9.25;;;;;28.35;40.23;99092.25;4912487;29;8852;-71
2021/01/29 09:31:06;;;;;;;;;13.50;10.00;;;;;28.23;39.74;99085.19;4924979;29;8945;-71
2021/01/29 09:33:53;;;;;;;;;11.25;10.50;;;;;28.25;39.98;99092.94;4921369;29;8840;-71
2021/01/29 09:36:44;;;;;;;;;9.00;9.00;;;;;28.18;39.88;99088.22;4923963;29;8942;-70
2021/01/29 09:39:31;;;;;;;;;10.75;8.25;;;;;28.17;38.85;99091.31;4921986;29;9653;-70
2021/01/29 09:42:07;;;;;;;;;14.50;12.00;;;;;28.17;40.17;99096.72;4915120;29;8844;-69
2021/01/29 09:44:57;;;;;;;;;11.00;11.00;;;;;28.23;39.92;99095.25;4931162;29;8931;-70
2021/01/29 09:47:28;;;;;;;;;13.00;12.00;;;;;28.22;39.76;99099.13;4929707;29;8860;-69
2021/01/29 09:50:08;;;;;;;;;12.25;10.75;;;;;28.18;39.91;99092.84;4914752;29;8845;-69
2021/01/29 09:53:21;;;;;;;;;9.75;8.00;;;;;28.12;39.73;99103.28;4931661;29;8856;-70
2021/01/29 09:56:08;;;;;;;;;11.00;8.00;;;;;28.09;39.46;99103.25;4915657;29;8856;-69
2021/01/29 09:59:01;;;;;;;;;12.50;10.00;;;;;28.11;39.69;99106.34;4931969;29;8991;-69
2021/01/29 10:01:39;;;;;;;;;14.25;11.25;;;;;28.11;39.79;99101.72;4925070;29;8863;-72
2021/01/29 10:04:40;;;;;;;;;11.25;9.50;;;;;28.11;39.85;99103.66;4930048;29;8962;-69
2021/01/29 10:07:11;;;;;;;;;11.50;9.25;;;;;28.09;39.39;99111.38;4932089;29;8987;-69
2021/01/29 10:09:48;;;;;;;;;15.25;9.00;;;;;28.08;39.67;99109.81;4932458;29;8851;-69
2021/01/29 10:12:26;;;;;;;;;9.50;8.00;;;;;28.05;40.18;99100.50;4932731;29;8860;-69
2021/01/29 10:15:12;;;;;;;;;13.00;10.00;;;;;28.00;39.83;99102.78;4932829;29;8871;-69
2021/01/29 10:18:04;;;;;;;;;10.00;10.00;;;;;27.92;39.92;99094.56;4930869;29;8867;-68
2021/01/29 10:20:35;;;;;;;;;10.25;8.25;;;;;27.86;39.58;99093.34;4931816;29;8878;-69
2021/01/29 10:23:29;;;;;;;;;9.75;9.50;;;;;27.83;39.73;99096.03;4931071;29;9664;-69
2021/01/29 10:26:14;;;;;;;;;12.00;11.25;;;;;27.77;39.95;99094.81;4930660;29;8856;-69
2021/01/29 10:29:21;;;;;;;;;12.00;10.75;;;;;27.75;39.89;99099.81;4931710;29;8875;-69
2021/01/29 10:32:10;;;;;;;;;10.50;8.00;;;;;27.72;40.02;99101.34;4932331;29;8868;-68
2021/01/29 10:35:03;;;;;;;;;14.25;14.25;;;;;27.68;39.54;99114.09;4933429;29;8950;-68
2021/01/29 10:37:48;;;;;;;;;13.75;12.00;;;;;27.64;39.85;99107.06;4933389;29;8912;-68
2021/01/29 10:40:29;;;;;;;;;10.75;9.00;;;;;27.63;39.70;99109.00;4933464;29;8904;-68
2021/01/29 10:43:24;;;;;;;;;13.75;9.75;;;;;27.62;40.00;99115.56;4934310;29;8899;-68
2021/01/29 10:46:16;;;;;;;;;11.00;11.00;;;;;27.56;39.49;99112.38;4932896;29;9706;-69
2021/01/29 10:49:24;;;;;;;;;10.00;10.00;;;;;27.52;39.35;99113.50;4933546;29;8860;-69
2021/01/29 10:52:20;;;;;;;;;11.00;9.75;;;;;27.53;39.84;99117.75;4932471;29;8901;-69
2021/01/29 10:54:49;;;;;;;;;10.50;10.50;;;;;27.52;39.81;99127.03;4935293;29;8868;-69
2021/01/29 10:57:29;;;;;;;;;12.00;11.25;;;;;27.48;39.67;99118.09;4934493;29;8867;-69
2021/01/29 11:00:08;;;;;;;;;11.50;11.50;;;;;27.44;39.73;99111.84;4931515;29;8890;-70
2021/01/29 11:02:48;;;;;;;;;18.33;16.33;;;;;27.37;40.03;99111.78;4914114;29;8957;-70
2021/01/29 11:05:26;;;;;;;;;13.75;13.25;;;;;27.35;40.13;99120.25;4931692;29;8988;-68
2021/01/29 11:08:30;;;;;;;;;12.25;12.25;;;;;27.32;40.12;99117.53;4932392;29;8994;-68
2021/01/29 11:11:13;;;;;;;;;13.25;12.00;;;;;27.25;40.12;99119.03;4913903;29;9585;-68
2021/01/29 11:14:13;;;;;;;;;11.75;11.75;;;;;27.22;40.11;99130.59;4934544;29;8959;-68
2021/01/29 11:17:09;;;;;;;;;16.25;12.25;;;;;27.18;39.94;99132.47;4934884;29;8938;-69
2021/01/29 11:19:47;;;;;;;;;16.25;12.25;;;;;27.14;39.89;99130.88;4931972;29;8870;-68
2021/01/29 11:22:49;;;;;;;;;17.00;13.00;;;;;27.13;40.57;99132.78;4933329;29;8883;-69
2021/01/29 11:25:57;;;;;;;;;17.25;13.25;;;;;27.10;40.34;99124.63;4934614;29;8879;-69
2021/01/29 11:28:49;;;;;;;;;18.50;15.25;;;;;27.07;40.22;99136.19;4934171;29;8860;-69
2021/01/29 11:31:32;;;;;;;;;15.00;11.00;;;;;27.03;40.70;99138.84;4929094;29;8906;-69
2021/01/29 11:34:01;;;;;;;;;17.25;15.25;;;;;26.97;40.46;99134.91;4925995;29;8901;-69
2021/01/29 11:36:57;;;;;;;;;17.33;14.33;;;;;26.95;40.60;99137.94;4935325;29;8931;-69
2021/01/29 11:39:56;;;;;;;;;18.00;15.00;;;;;26.91;40.77;99141.75;4935597;29;8966;-70
2021/01/29 11:42:38;;;;;;;;;10.25;10.25;;;;;26.89;40.49;99154.88;4936928;29;9036;-69
2021/01/29 11:45:30;;;;;;;;;13.75;12.50;;;;;26.85;40.47;99152.09;4937182;29;8867;-70
2021/01/29 11:48:16;;;;;;;;;7.50;7.50;;;;;26.83;40.89;99157.09;4937255;29;8886;-70
2021/01/29 11:51:16;;;;;;;;;13.00;12.67;;;;;26.80;40.52;99157.06;4937084;29;8942;-70
2021/01/29 11:54:01;;;;;;;;;13.75;11.50;;;;;26.75;40.66;99160.84;4937103;29;8954;-70
2021/01/29 11:56:43;;;;;;;;;18.25;15.25;;;;;26.70;40.96;99153.03;4937354;29;8867;-69
2021/01/29 11:59:40;;;;;;;;;13.33;11.00;;;;;26.67;41.00;99158.41;4937050;29;8939;-70
2021/01/29 12:02:40;;;;;;;;;15.75;14.00;;;;;26.68;41.08;99168.84;4936970;29;9039;-70
2021/01/29 12:05:15;;;;;;;;;6.00;6.00;;;;;26.64;41.04;99163.41;4937926;29;8917;-70
2021/01/29 12:08:07;;;;;;;;;18.33;15.67;;;;;26.61;40.66;99166.81;4937655;29;8958;-70
2021/01/29 12:10:56;;;;;;;;;17.00;14.00;;;;;26.60;40.75;99175.31;4936784;29;9104;-69
2021/01/29 12:13:39;;;;;;;;;16.25;13.25;;;;;26.55;40.92;99175.59;4936888;29;8946;-69
2021/01/29 12:16:18;;;;;;;;;18.33;15.33;;;;;26.52;41.08;99171.72;4936729;29;8872;-69
2021/01/29 12:18:50;;;;;;;;;16.00;14.00;;;;;26.51;41.05;99178.25;4936703;29;9744;-69
2021/01/29 12:21:36;;;;;;;;;15.00;11.67;;;;;26.37;40.82;99163.72;4936666;29;9948;-69
2021/01/29 12:24:29;;;;;;;;;15.00;12.00;;;;;26.51;40.58;99194.50;4919863;29;9035;-69
2021/01/29 12:27:17;;;;;;;;;9.00;9.00;;;;;26.51;40.28;99204.53;4936546;29;8891;-69
2021/01/29 12:30:10;;;;;;;;;9.75;9.75;;;;;26.53;40.85;99216.56;4936454;29;8982;-69
2021/01/29 12:33:01;;;;;;;;;11.75;9.75;;;;;26.52;40.61;99215.00;4936396;29;8975;-69
2021/01/29 12:35:47;;;;;;;;;12.00;12.00;;;;;26.58;40.58;99221.66;4936471;29;8864;-69
2021/01/29 12:38:35;;;;;;;;;16.00;12.50;;;;;26.59;40.50;99223.22;4936195;29;8856;-69
2021/01/29 12:41:09;;;;;;;;;13.75;10.50;;;;;26.59;40.61;99225.16;4936539;29;8863;-69
2021/01/29 12:43:49;;;;;;;;;13.50;10.25;;;;;26.59;40.51;99222.44;4936296;29;8855;-69
2021/01/29 12:46:35;;;;;;;;;10.50;10.50;;;;;26.57;40.57;99224.72;4936262;29;8860;-69
2021/01/29 12:49:14;;;;;;;;;13.00;11.00;;;;;26.58;40.51;99232.47;4936047;29;9736;-69
2021/01/29 12:52:21;;;;;;;;;15.25;13.50;;;;;26.59;40.71;99234.06;4935997;29;8956;-69
2021/01/29 12:55:06;;;;;;;;;14.33;13.00;;;;;26.57;40.64;99236.34;4935971;29;8890;-69
2021/01/29 12:57:35;;;;;;;;;10.75;8.75;;;;;26.51;40.72;99240.47;4935985;29;9816;-69
2021/01/29 13:00:21;;;;;;;;;14.00;11.75;;;;;26.56;40.92;99248.31;4935966;29;8942;-69
2021/01/29 13:03:01;;;;;;;;;17.67;16.00;;;;;26.59;40.92;99257.63;4935874;29;8867;-69